Sumner, Georgia
Current Conditions -  °F | °C
As of 6:35 PM on Thursday 18 Dec 2014 (Local Time) from KTMA Reporting Station
Clear Clear  
Wind Chill: 56°   Ceiling: Unl
Heat Index: 56°   Visibility: 10mi
Dew Point: 35°   Wind: 0mph
Humidity: 45%   Direction: NA
Pressure: 30.11"   Gusts: NA
Location:  31.51°N, 83.74°W
Report Text: KTMA 182335Z AUTO 00000KT 10SM CLR 13/01 A3011 RMK AO2 T01320014
Loading
Personal Weather Stations






























Interactive Weather Map New forecast layout! Learn more

10-Day Weather Forecast

Advertisements
Track Severe Weather on mobile